Toronado — WDD6167 — position and weather

sailwx.info

Track history (hours):
 
Tides and Currents Weather Stations Pressure Air Temp Water Temp Dewpoint Dewpoint Depression Visibility Wind Speed Wind Dir Waves Ship Positions

Toronado

Owner: Toronado Sportfishing, Long Beach, CA. More information available from US FCC via Universal Licensing System and Coast Guard Vessel Documentation Center.

Last reported at 2018-May-24 19:24 UTC. Time now 2018-May-25 14:51 UTC.
Position N 33°46' W 118°12'.

Length 22 m.

Type: Fishing. MMSI: 367169120.

Date/timePositionNaut miles runAvg speedWind from/ knotsBaromVisibWave heightAir tempDewpointWater temp
2018-May-24 19:24N 33°46' W 118°12'2 5.5
2018-May-24 19:00N 33°44' W 118°12'3 6.4
2018-May-24 18:30N 33°44' W 118°16'0 0.2
2018-May-24 18:00N 33°44' W 118°16'2 4.7
2018-May-24 17:30N 33°43' W 118°14'3 0.2
2018-May-24 01:37N 33°46' W 118°12'1 6.3
2018-May-24 01:30N 33°45' W 118°11'2 4.1
2018-May-24 01:00N 33°46' W 118°13'0 0.1
2018-May-24 00:30N 33°46' W 118°13'4 8.3
2018-May-24 00:01N 33°42' W 118°15'3 0.2
2018-May-23 06:30N 33°39' W 118°13'6 9.4
2018-May-23 05:54N 33°43' W 118°08'0 0.5
2018-May-23 05:12N 33°44' W 118°08'1 7.6
2018-May-23 05:00N 33°44' W 118°10'3 6.9
2018-May-23 04:30N 33°46' W 118°13'0 0.3
2018-May-23 04:00N 33°46' W 118°13'1 0.2
2018-May-22 22:47N 33°46' W 118°12'0 0.0
2018-May-22 22:30N 33°46' W 118°12'0 0.0
2018-May-22 22:00N 33°46' W 118°12'0 0.0
2018-May-22 21:30N 33°46' W 118°12'0 0.0
2018-May-21 03:59N 33°46' W 118°12'3 5.3
2018-May-21 03:30N 33°43' W 118°11'6 9.9
2018-May-21 02:55N 33°40' W 118°17'7 0.3
2018-May-20 06:13N 33°41' W 118°09'2 9.2
2018-May-20 05:58N 33°43' W 118°08'0 0.4
2018-May-20 05:29N 33°44' W 118°08'2 4.1
2018-May-20 05:01N 33°45' W 118°10'2 3.1
2018-May-20 04:31N 33°46' W 118°12'  
Track history (hours):
 
Tides and Currents Weather Stations Pressure Air Temp Water Temp Dewpoint Dewpoint Depression Visibility Wind Speed Wind Dir Waves Ship Positions

Toronado

Owner: Toronado Sportfishing, Long Beach, CA. More information available from US FCC via Universal Licensing System and Coast Guard Vessel Documentation Center.

Last reported at 2018-May-24 19:24 UTC. Time now 2018-May-25 14:51 UTC.
Position N 33°46' W 118°12'.

Length 22 m.

Type: Fishing. MMSI: 367169120.

Date/timePositionNaut miles runAvg speedWind from/ knotsBaromVisibWave heightAir tempDewpointWater temp
2018-May-24 19:24N 33°46' W 118°12'2 5.5
2018-May-24 19:00N 33°44' W 118°12'3 6.4
2018-May-24 18:30N 33°44' W 118°16'0 0.2
2018-May-24 18:00N 33°44' W 118°16'2 4.7
2018-May-24 17:30N 33°43' W 118°14'3 0.2
2018-May-24 01:37N 33°46' W 118°12'1 6.3
2018-May-24 01:30N 33°45' W 118°11'2 4.1
2018-May-24 01:00N 33°46' W 118°13'0 0.1
2018-May-24 00:30N 33°46' W 118°13'4 8.3
2018-May-24 00:01N 33°42' W 118°15'3 0.2
2018-May-23 06:30N 33°39' W 118°13'6 9.4
2018-May-23 05:54N 33°43' W 118°08'0 0.5
2018-May-23 05:12N 33°44' W 118°08'1 7.6
2018-May-23 05:00N 33°44' W 118°10'3 6.9
2018-May-23 04:30N 33°46' W 118°13'0 0.3
2018-May-23 04:00N 33°46' W 118°13'1 0.2
2018-May-22 22:47N 33°46' W 118°12'0 0.0
2018-May-22 22:30N 33°46' W 118°12'0 0.0
2018-May-22 22:00N 33°46' W 118°12'0 0.0
2018-May-22 21:30N 33°46' W 118°12'0 0.0
2018-May-21 03:59N 33°46' W 118°12'3 5.3
2018-May-21 03:30N 33°43' W 118°11'6 9.9
2018-May-21 02:55N 33°40' W 118°17'7 0.3
2018-May-20 06:13N 33°41' W 118°09'2 9.2
2018-May-20 05:58N 33°43' W 118°08'0 0.4
2018-May-20 05:29N 33°44' W 118°08'2 4.1
2018-May-20 05:01N 33°45' W 118°10'2 3.1
2018-May-20 04:31N 33°46' W 118°12'  

Dump ship's entire track history